createdAt,value
2019-04-26T00:00:53.571Z,10
2019-04-26T00:06:10.710Z,10
2019-04-26T00:11:34.546Z,10
2019-04-26T00:16:48.730Z,10
2019-04-26T00:22:04.867Z,10
2019-04-26T00:27:22.186Z,10
2019-04-26T00:32:37.010Z,9
2019-04-26T00:37:51.944Z,9
2019-04-26T00:43:06.218Z,9
2019-04-26T00:48:23.968Z,9
2019-04-26T00:53:38.094Z,9
2019-04-26T01:04:03.725Z,9
2019-04-26T01:09:19.434Z,9
2019-04-26T01:14:33.188Z,9
2019-04-26T01:19:47.123Z,9
2019-04-26T01:25:03.022Z,9
2019-04-26T01:30:19.824Z,9
2019-04-26T01:35:32.591Z,9
2019-04-26T01:40:48.411Z,9
2019-04-26T01:46:02.214Z,9
2019-04-26T01:51:17.431Z,9
2019-04-26T01:56:32.046Z,8
2019-04-26T02:01:48.216Z,8
2019-04-26T02:07:02.787Z,8
2019-04-26T02:17:31.385Z,8
2019-04-26T02:22:46.465Z,8
2019-04-26T02:28:00.215Z,8
2019-04-26T02:33:16.642Z,8
2019-04-26T02:38:37.460Z,8
2019-04-26T02:43:53.608Z,8
2019-04-26T02:49:08.115Z,8
2019-04-26T02:54:21.688Z,8
2019-04-26T02:59:41.167Z,8
2019-04-26T03:04:57.300Z,8
2019-04-26T03:10:16.844Z,8
2019-04-26T03:15:38.787Z,8
2019-04-26T03:20:52.082Z,7
2019-04-26T03:26:12.953Z,7
2019-04-26T03:31:28.190Z,7
2019-04-26T03:36:45.203Z,7
2019-04-26T03:41:57.528Z,7
2019-04-26T03:47:12.291Z,7
2019-04-26T03:52:26.444Z,7
2019-04-26T03:57:46.842Z,7
2019-04-26T04:03:06.879Z,7
2019-04-26T04:08:22.317Z,8
2019-04-26T04:13:50.438Z,8
2019-04-26T04:19:07.335Z,8
2019-04-26T04:24:27.904Z,8
2019-04-26T04:29:56.040Z,8
2019-04-26T04:35:11.579Z,8
2019-04-26T04:40:27.633Z,8
2019-04-26T04:45:50.101Z,9
2019-04-26T04:51:04.415Z,9
2019-04-26T04:56:18.673Z,9
2019-04-26T05:01:34.003Z,9
2019-04-26T05:06:53.175Z,10
2019-04-26T05:12:12.381Z,11
2019-04-26T05:17:29.641Z,11
2019-04-26T05:22:48.997Z,12
2019-04-26T05:28:04.267Z,13
2019-04-26T05:33:20.734Z,14
2019-04-26T05:38:35.678Z,15
2019-04-26T05:43:53.802Z,15
2019-04-26T05:49:09.569Z,16
2019-04-26T05:54:23.159Z,16
2019-04-26T05:59:38.271Z,16
2019-04-26T06:04:57.135Z,17
2019-04-26T06:10:13.597Z,17
2019-04-26T07:34:03.774Z,18
2019-04-26T07:39:21.617Z,18
2019-04-26T07:55:11.044Z,19
2019-04-26T08:00:28.529Z,19
2019-04-26T08:11:04.338Z,20
2019-04-26T08:16:24.914Z,20
2019-04-26T08:37:37.956Z,20
2019-04-26T08:42:59.680Z,21
2019-04-26T08:48:29.676Z,21
2019-04-26T09:04:18.167Z,22
2019-04-26T16:34:49.523Z,26
2019-04-26T16:40:07.713Z,25
2019-04-26T16:45:25.672Z,25
2019-04-26T16:50:47.210Z,25
2019-04-26T16:56:02.950Z,24
2019-04-26T17:01:24.264Z,24
2019-04-26T17:06:47.537Z,23
2019-04-26T17:12:02.885Z,23
2019-04-26T17:17:18.032Z,22
2019-04-26T17:23:00.580Z,22
2019-04-26T17:28:22.793Z,22
2019-04-26T17:33:39.788Z,21
2019-04-26T17:39:01.855Z,21
2019-04-26T17:44:28.507Z,21
2019-04-26T17:49:44.809Z,20
2019-04-26T17:55:01.346Z,20
2019-04-26T18:00:37.049Z,20
2019-04-26T18:06:01.336Z,19
2019-04-26T18:11:25.213Z,19
2019-04-26T18:16:38.308Z,19
2019-04-26T18:22:00.610Z,19
2019-04-26T18:27:15.412Z,18
2019-04-26T18:32:47.953Z,18
2019-04-26T18:38:08.451Z,18
2019-04-26T18:43:30.826Z,18
2019-04-26T18:48:48.269Z,18
2019-04-26T18:54:09.174Z,17
2019-04-26T18:59:29.641Z,17
2019-04-26T19:04:50.241Z,17
2019-04-26T19:10:06.417Z,17
2019-04-26T19:15:22.867Z,17
2019-04-26T19:20:38.045Z,17
2019-04-26T19:25:54.987Z,16
2019-04-26T19:31:13.281Z,16
2019-04-26T19:36:33.856Z,16
2019-04-26T19:41:59.086Z,16
2019-04-26T19:47:14.701Z,16
2019-04-26T19:52:29.344Z,16
2019-04-26T19:57:54.892Z,15
2019-04-26T20:03:17.344Z,15
2019-04-26T20:08:49.346Z,15
2019-04-26T20:14:04.350Z,15
2019-04-26T20:19:37.832Z,15
2019-04-26T20:24:58.428Z,15
2019-04-26T20:30:27.765Z,15
2019-04-26T20:35:43.058Z,15
2019-04-26T20:41:02.522Z,15
2019-04-26T21:02:08.559Z,15
2019-04-26T21:12:36.103Z,15
2019-04-26T21:54:25.174Z,14
2019-04-26T21:59:44.643Z,14
2019-04-26T22:04:59.012Z,14
2019-04-26T22:15:24.425Z,14
2019-04-26T22:20:39.317Z,14
2019-04-26T22:41:37.500Z,13
2019-04-26T22:46:58.735Z,13
2019-04-26T23:02:50.165Z,13
2019-04-26T23:08:05.967Z,13
